sensor_id;sensor_type;location;lat;lon;timestamp;P1;durP1;ratioP1;P2;durP2;ratioP2
47335;SDS011;33068;51.990;5.926;2023-11-19T00:01:46;47.92;;;27.42;;
47335;SDS011;33068;51.990;5.926;2023-11-19T00:04:14;43.78;;;26.70;;
47335;SDS011;33068;51.990;5.926;2023-11-19T00:06:52;49.20;;;27.35;;
47335;SDS011;33068;51.990;5.926;2023-11-19T00:09:50;51.15;;;27.38;;
47335;SDS011;33068;51.990;5.926;2023-11-19T00:12:35;35.00;;;22.38;;
47335;SDS011;33068;51.990;5.926;2023-11-19T00:15:10;45.33;;;27.73;;
47335;SDS011;33068;51.990;5.926;2023-11-19T00:17:42;43.83;;;27.25;;
47335;SDS011;33068;51.990;5.926;2023-11-19T00:20:19;45.92;;;27.65;;
47335;SDS011;33068;51.990;5.926;2023-11-19T00:22:58;40.30;;;26.08;;
47335;SDS011;33068;51.990;5.926;2023-11-19T00:25:31;40.15;;;25.08;;
47335;SDS011;33068;51.990;5.926;2023-11-19T00:28:20;43.38;;;26.48;;
47335;SDS011;33068;51.990;5.926;2023-11-19T00:31:09;46.85;;;26.70;;
47335;SDS011;33068;51.990;5.926;2023-11-19T00:33:48;50.30;;;27.13;;
47335;SDS011;33068;51.990;5.926;2023-11-19T00:36:18;47.05;;;26.80;;
47335;SDS011;33068;51.990;5.926;2023-11-19T00:38:48;45.47;;;24.13;;
47335;SDS011;33068;51.990;5.926;2023-11-19T00:41:18;37.85;;;24.75;;
47335;SDS011;33068;51.990;5.926;2023-11-19T00:43:50;51.00;;;25.20;;
47335;SDS011;33068;51.990;5.926;2023-11-19T00:46:23;37.00;;;22.77;;
47335;SDS011;33068;51.990;5.926;2023-11-19T00:48:59;43.40;;;23.30;;
47335;SDS011;33068;51.990;5.926;2023-11-19T00:51:30;55.50;;;24.45;;
47335;SDS011;33068;51.990;5.926;2023-11-19T00:54:23;42.70;;;22.23;;
47335;SDS011;33068;51.990;5.926;2023-11-19T00:57:00;40.75;;;20.75;;
47335;SDS011;33068;51.990;5.926;2023-11-19T00:59:31;41.67;;;20.20;;
47335;SDS011;33068;51.990;5.926;2023-11-19T01:01:59;40.90;;;19.92;;
47335;SDS011;33068;51.990;5.926;2023-11-19T01:04:30;30.35;;;16.48;;
47335;SDS011;33068;51.990;5.926;2023-11-19T01:07:05;39.80;;;18.80;;
47335;SDS011;33068;51.990;5.926;2023-11-19T01:09:49;46.20;;;19.13;;
47335;SDS011;33068;51.990;5.926;2023-11-19T01:12:19;35.17;;;16.38;;
47335;SDS011;33068;51.990;5.926;2023-11-19T01:14:59;36.40;;;15.93;;
47335;SDS011;33068;51.990;5.926;2023-11-19T01:17:27;29.15;;;12.80;;
47335;SDS011;33068;51.990;5.926;2023-11-19T01:20:03;31.52;;;13.65;;
47335;SDS011;33068;51.990;5.926;2023-11-19T01:22:39;36.92;;;14.65;;
47335;SDS011;33068;51.990;5.926;2023-11-19T01:25:14;30.30;;;13.00;;
47335;SDS011;33068;51.990;5.926;2023-11-19T01:27:44;37.30;;;12.68;;
47335;SDS011;33068;51.990;5.926;2023-11-19T01:30:12;31.02;;;11.23;;
47335;SDS011;33068;51.990;5.926;2023-11-19T01:32:55;33.83;;;11.25;;
47335;SDS011;33068;51.990;5.926;2023-11-19T01:35:29;30.00;;;12.38;;
47335;SDS011;33068;51.990;5.926;2023-11-19T01:38:21;33.53;;;10.18;;
47335;SDS011;33068;51.990;5.926;2023-11-19T01:40:48;37.25;;;9.75;;
47335;SDS011;33068;51.990;5.926;2023-11-19T01:48:45;32.63;;;8.93;;
47335;SDS011;33068;51.990;5.926;2023-11-19T01:51:33;31.15;;;7.35;;
47335;SDS011;33068;51.990;5.926;2023-11-19T01:54:23;33.03;;;8.35;;
47335;SDS011;33068;51.990;5.926;2023-11-19T01:57:02;34.58;;;7.78;;
47335;SDS011;33068;51.990;5.926;2023-11-19T01:59:33;38.03;;;9.25;;
47335;SDS011;33068;51.990;5.926;2023-11-19T02:02:05;32.53;;;7.68;;
47335;SDS011;33068;51.990;5.926;2023-11-19T02:04:42;28.42;;;6.75;;
47335;SDS011;33068;51.990;5.926;2023-11-19T02:07:30;40.22;;;8.48;;
47335;SDS011;33068;51.990;5.926;2023-11-19T02:10:12;27.85;;;6.20;;
47335;SDS011;33068;51.990;5.926;2023-11-19T02:12:45;30.92;;;8.10;;
47335;SDS011;33068;51.990;5.926;2023-11-19T02:15:18;30.85;;;6.15;;
47335;SDS011;33068;51.990;5.926;2023-11-19T02:17:50;25.73;;;6.00;;
47335;SDS011;33068;51.990;5.926;2023-11-19T02:20:29;25.13;;;6.35;;
47335;SDS011;33068;51.990;5.926;2023-11-19T02:23:07;42.67;;;6.90;;
47335;SDS011;33068;51.990;5.926;2023-11-19T02:25:50;33.92;;;6.28;;
47335;SDS011;33068;51.990;5.926;2023-11-19T02:28:31;25.95;;;6.72;;
47335;SDS011;33068;51.990;5.926;2023-11-19T02:31:08;37.88;;;5.28;;
47335;SDS011;33068;51.990;5.926;2023-11-19T02:33:37;38.47;;;6.25;;
47335;SDS011;33068;51.990;5.926;2023-11-19T02:36:12;30.98;;;5.28;;
47335;SDS011;33068;51.990;5.926;2023-11-19T02:38:47;33.28;;;6.30;;
47335;SDS011;33068;51.990;5.926;2023-11-19T02:41:18;36.85;;;6.60;;
47335;SDS011;33068;51.990;5.926;2023-11-19T02:44:00;36.55;;;4.80;;
47335;SDS011;33068;51.990;5.926;2023-11-19T02:46:32;42.83;;;5.70;;
47335;SDS011;33068;51.990;5.926;2023-11-19T02:49:19;32.55;;;4.60;;
47335;SDS011;33068;51.990;5.926;2023-11-19T02:52:01;29.75;;;5.10;;
47335;SDS011;33068;51.990;5.926;2023-11-19T02:54:36;30.75;;;4.30;;
47335;SDS011;33068;51.990;5.926;2023-11-19T02:57:06;43.28;;;5.00;;
47335;SDS011;33068;51.990;5.926;2023-11-19T02:59:40;35.88;;;5.20;;
47335;SDS011;33068;51.990;5.926;2023-11-19T03:02:16;33.92;;;4.90;;
47335;SDS011;33068;51.990;5.926;2023-11-19T03:04:43;43.42;;;5.20;;
47335;SDS011;33068;51.990;5.926;2023-11-19T03:07:18;47.90;;;6.07;;
47335;SDS011;33068;51.990;5.926;2023-11-19T03:09:47;34.45;;;4.22;;
47335;SDS011;33068;51.990;5.926;2023-11-19T03:12:22;41.08;;;4.22;;
47335;SDS011;33068;51.990;5.926;2023-11-19T03:14:57;38.50;;;4.35;;
47335;SDS011;33068;51.990;5.926;2023-11-19T03:17:25;28.23;;;3.78;;
47335;SDS011;33068;51.990;5.926;2023-11-19T03:20:12;38.15;;;5.63;;
47335;SDS011;33068;51.990;5.926;2023-11-19T03:22:46;50.63;;;6.32;;
47335;SDS011;33068;51.990;5.926;2023-11-19T03:25:14;38.05;;;6.35;;
47335;SDS011;33068;51.990;5.926;2023-11-19T03:27:45;48.85;;;5.75;;
47335;SDS011;33068;51.990;5.926;2023-11-19T03:30:16;41.10;;;5.18;;
47335;SDS011;33068;51.990;5.926;2023-11-19T03:32:44;48.25;;;6.47;;
47335;SDS011;33068;51.990;5.926;2023-11-19T03:35:16;46.05;;;6.45;;
47335;SDS011;33068;51.990;5.926;2023-11-19T03:37:52;43.05;;;7.10;;
47335;SDS011;33068;51.990;5.926;2023-11-19T03:43:14;55.75;;;11.00;;
47335;SDS011;33068;51.990;5.926;2023-11-19T03:45:44;51.35;;;6.32;;
47335;SDS011;33068;51.990;5.926;2023-11-19T03:48:12;46.97;;;5.30;;
47335;SDS011;33068;51.990;5.926;2023-11-19T03:50:42;32.70;;;6.15;;
47335;SDS011;33068;51.990;5.926;2023-11-19T03:53:14;46.92;;;7.13;;
47335;SDS011;33068;51.990;5.926;2023-11-19T03:55:52;41.80;;;5.05;;
47335;SDS011;33068;51.990;5.926;2023-11-19T03:58:21;49.97;;;7.30;;
47335;SDS011;33068;51.990;5.926;2023-11-19T04:00:53;46.70;;;5.60;;
47335;SDS011;33068;51.990;5.926;2023-11-19T04:03:22;45.35;;;4.65;;
47335;SDS011;33068;51.990;5.926;2023-11-19T04:05:54;49.35;;;6.03;;
47335;SDS011;33068;51.990;5.926;2023-11-19T04:08:22;51.35;;;6.50;;
47335;SDS011;33068;51.990;5.926;2023-11-19T04:10:52;55.75;;;6.28;;
47335;SDS011;33068;51.990;5.926;2023-11-19T04:13:21;39.13;;;5.43;;
47335;SDS011;33068;51.990;5.926;2023-11-19T04:16:01;46.65;;;4.80;;
47335;SDS011;33068;51.990;5.926;2023-11-19T04:18:35;49.47;;;6.30;;
47335;SDS011;33068;51.990;5.926;2023-11-19T04:21:08;54.78;;;6.22;;
47335;SDS011;33068;51.990;5.926;2023-11-19T04:23:39;52.20;;;6.50;;
47335;SDS011;33068;51.990;5.926;2023-11-19T04:26:12;56.35;;;6.07;;
47335;SDS011;33068;51.990;5.926;2023-11-19T04:28:39;53.65;;;7.75;;
47335;SDS011;33068;51.990;5.926;2023-11-19T04:31:11;60.85;;;6.80;;
47335;SDS011;33068;51.990;5.926;2023-11-19T04:33:39;55.22;;;6.13;;
47335;SDS011;33068;51.990;5.926;2023-11-19T04:36:10;50.50;;;6.43;;
47335;SDS011;33068;51.990;5.926;2023-11-19T04:38:43;50.33;;;5.78;;
47335;SDS011;33068;51.990;5.926;2023-11-19T04:41:14;50.10;;;4.60;;
47335;SDS011;33068;51.990;5.926;2023-11-19T04:43:41;48.40;;;5.63;;
47335;SDS011;33068;51.990;5.926;2023-11-19T04:46:14;52.83;;;7.55;;
47335;SDS011;33068;51.990;5.926;2023-11-19T04:48:46;50.00;;;6.78;;
47335;SDS011;33068;51.990;5.926;2023-11-19T04:51:21;59.42;;;6.93;;
47335;SDS011;33068;51.990;5.926;2023-11-19T04:54:05;50.85;;;5.70;;
47335;SDS011;33068;51.990;5.926;2023-11-19T04:56:34;45.05;;;6.47;;
47335;SDS011;33068;51.990;5.926;2023-11-19T05:01:52;49.78;;;6.55;;
47335;SDS011;33068;51.990;5.926;2023-11-19T05:04:20;59.47;;;6.30;;
47335;SDS011;33068;51.990;5.926;2023-11-19T05:06:47;52.60;;;6.50;;
47335;SDS011;33068;51.990;5.926;2023-11-19T05:09:18;52.88;;;6.53;;
47335;SDS011;33068;51.990;5.926;2023-11-19T05:11:45;47.78;;;6.57;;
47335;SDS011;33068;51.990;5.926;2023-11-19T05:14:17;44.55;;;5.57;;
47335;SDS011;33068;51.990;5.926;2023-11-19T05:16:48;56.58;;;7.38;;
47335;SDS011;33068;51.990;5.926;2023-11-19T05:19:18;47.40;;;5.85;;
47335;SDS011;33068;51.990;5.926;2023-11-19T05:21:48;54.30;;;5.70;;
47335;SDS011;33068;51.990;5.926;2023-11-19T05:24:17;54.38;;;6.28;;
47335;SDS011;33068;51.990;5.926;2023-11-19T05:26:45;55.65;;;7.97;;
47335;SDS011;33068;51.990;5.926;2023-11-19T05:29:14;53.67;;;6.25;;
47335;SDS011;33068;51.990;5.926;2023-11-19T05:31:42;57.13;;;6.30;;
47335;SDS011;33068;51.990;5.926;2023-11-19T05:34:13;57.17;;;7.65;;
47335;SDS011;33068;51.990;5.926;2023-11-19T05:36:42;64.70;;;7.82;;
47335;SDS011;33068;51.990;5.926;2023-11-19T05:39:13;51.00;;;7.20;;
47335;SDS011;33068;51.990;5.926;2023-11-19T05:41:44;52.35;;;6.97;;
47335;SDS011;33068;51.990;5.926;2023-11-19T05:44:11;55.05;;;6.45;;
47335;SDS011;33068;51.990;5.926;2023-11-19T05:46:39;44.97;;;6.32;;
47335;SDS011;33068;51.990;5.926;2023-11-19T05:49:08;46.72;;;5.65;;
47335;SDS011;33068;51.990;5.926;2023-11-19T05:51:38;52.30;;;5.85;;
47335;SDS011;33068;51.990;5.926;2023-11-19T05:54:12;63.67;;;6.78;;
47335;SDS011;33068;51.990;5.926;2023-11-19T05:56:40;54.58;;;5.72;;
47335;SDS011;33068;51.990;5.926;2023-11-19T05:59:07;54.15;;;7.20;;
47335;SDS011;33068;51.990;5.926;2023-11-19T06:01:41;58.60;;;5.40;;
47335;SDS011;33068;51.990;5.926;2023-11-19T06:04:09;58.80;;;6.28;;
47335;SDS011;33068;51.990;5.926;2023-11-19T06:06:37;42.20;;;5.22;;
47335;SDS011;33068;51.990;5.926;2023-11-19T06:09:05;51.50;;;6.68;;
47335;SDS011;33068;51.990;5.926;2023-11-19T06:11:36;60.33;;;6.50;;
47335;SDS011;33068;51.990;5.926;2023-11-19T06:14:05;53.40;;;7.45;;
47335;SDS011;33068;51.990;5.926;2023-11-19T06:16:33;51.10;;;6.43;;
47335;SDS011;33068;51.990;5.926;2023-11-19T06:19:05;61.58;;;7.95;;
47335;SDS011;33068;51.990;5.926;2023-11-19T06:21:36;60.20;;;7.63;;
47335;SDS011;33068;51.990;5.926;2023-11-19T06:24:06;57.13;;;7.35;;
47335;SDS011;33068;51.990;5.926;2023-11-19T06:26:43;56.13;;;6.65;;
47335;SDS011;33068;51.990;5.926;2023-11-19T06:29:12;54.78;;;6.80;;
47335;SDS011;33068;51.990;5.926;2023-11-19T06:31:43;63.97;;;9.82;;
47335;SDS011;33068;51.990;5.926;2023-11-19T06:34:12;54.85;;;6.25;;
47335;SDS011;33068;51.990;5.926;2023-11-19T06:36:40;62.38;;;7.85;;
47335;SDS011;33068;51.990;5.926;2023-11-19T06:39:09;57.35;;;8.25;;
47335;SDS011;33068;51.990;5.926;2023-11-19T06:41:37;61.67;;;8.05;;
47335;SDS011;33068;51.990;5.926;2023-11-19T06:44:09;53.13;;;8.80;;
47335;SDS011;33068;51.990;5.926;2023-11-19T06:46:37;74.85;;;11.98;;
47335;SDS011;33068;51.990;5.926;2023-11-19T06:49:12;74.43;;;10.88;;
47335;SDS011;33068;51.990;5.926;2023-11-19T06:51:41;55.13;;;9.90;;
47335;SDS011;33068;51.990;5.926;2023-11-19T06:54:11;57.35;;;10.23;;
47335;SDS011;33068;51.990;5.926;2023-11-19T06:56:39;65.80;;;12.38;;
47335;SDS011;33068;51.990;5.926;2023-11-19T06:59:07;66.07;;;12.32;;
47335;SDS011;33068;51.990;5.926;2023-11-19T07:01:36;54.45;;;7.88;;
47335;SDS011;33068;51.990;5.926;2023-11-19T07:04:07;54.58;;;10.05;;
47335;SDS011;33068;51.990;5.926;2023-11-19T07:07:13;55.03;;;7.47;;
47335;SDS011;33068;51.990;5.926;2023-11-19T07:09:53;56.88;;;6.82;;
47335;SDS011;33068;51.990;5.926;2023-11-19T07:12:34;55.38;;;9.77;;
47335;SDS011;33068;51.990;5.926;2023-11-19T07:15:05;45.88;;;6.03;;
47335;SDS011;33068;51.990;5.926;2023-11-19T07:17:34;56.72;;;9.10;;
47335;SDS011;33068;51.990;5.926;2023-11-19T07:20:04;47.88;;;6.38;;
47335;SDS011;33068;51.990;5.926;2023-11-19T07:22:32;50.30;;;8.35;;
47335;SDS011;33068;51.990;5.926;2023-11-19T07:25:05;49.95;;;6.43;;
47335;SDS011;33068;51.990;5.926;2023-11-19T07:27:38;53.72;;;6.50;;
47335;SDS011;33068;51.990;5.926;2023-11-19T07:30:30;41.80;;;5.82;;
47335;SDS011;33068;51.990;5.926;2023-11-19T07:33:02;37.80;;;5.57;;
47335;SDS011;33068;51.990;5.926;2023-11-19T07:35:36;43.67;;;6.93;;
47335;SDS011;33068;51.990;5.926;2023-11-19T07:38:09;60.15;;;7.03;;
47335;SDS011;33068;51.990;5.926;2023-11-19T07:40:40;52.75;;;7.65;;
47335;SDS011;33068;51.990;5.926;2023-11-19T07:43:23;46.60;;;6.45;;
47335;SDS011;33068;51.990;5.926;2023-11-19T07:46:15;56.25;;;7.65;;
47335;SDS011;33068;51.990;5.926;2023-11-19T07:52:42;51.55;;;6.47;;
47335;SDS011;33068;51.990;5.926;2023-11-19T07:55:19;44.60;;;6.07;;
47335;SDS011;33068;51.990;5.926;2023-11-19T07:58:06;45.55;;;5.18;;
47335;SDS011;33068;51.990;5.926;2023-11-19T08:00:37;51.85;;;5.65;;
47335;SDS011;33068;51.990;5.926;2023-11-19T08:03:06;49.15;;;5.55;;
47335;SDS011;33068;51.990;5.926;2023-11-19T08:05:41;45.92;;;5.47;;
47335;SDS011;33068;51.990;5.926;2023-11-19T08:08:18;50.30;;;6.05;;
47335;SDS011;33068;51.990;5.926;2023-11-19T08:10:58;48.80;;;6.15;;
47335;SDS011;33068;51.990;5.926;2023-11-19T08:13:31;46.97;;;6.03;;
47335;SDS011;33068;51.990;5.926;2023-11-19T08:16:21;56.13;;;7.72;;
47335;SDS011;33068;51.990;5.926;2023-11-19T08:18:50;43.63;;;4.40;;
47335;SDS011;33068;51.990;5.926;2023-11-19T08:21:19;45.53;;;6.30;;
47335;SDS011;33068;51.990;5.926;2023-11-19T08:23:53;44.22;;;5.10;;
47335;SDS011;33068;51.990;5.926;2023-11-19T08:26:30;39.08;;;6.07;;
47335;SDS011;33068;51.990;5.926;2023-11-19T08:29:10;36.50;;;4.63;;
47335;SDS011;33068;51.990;5.926;2023-11-19T08:31:41;53.33;;;6.68;;
47335;SDS011;33068;51.990;5.926;2023-11-19T08:34:09;44.13;;;5.45;;
47335;SDS011;33068;51.990;5.926;2023-11-19T08:36:41;50.38;;;5.43;;
47335;SDS011;33068;51.990;5.926;2023-11-19T08:39:14;40.03;;;4.95;;
47335;SDS011;33068;51.990;5.926;2023-11-19T08:41:44;35.50;;;4.57;;
47335;SDS011;33068;51.990;5.926;2023-11-19T08:44:12;52.80;;;7.93;;
47335;SDS011;33068;51.990;5.926;2023-11-19T08:46:45;41.15;;;5.55;;
47335;SDS011;33068;51.990;5.926;2023-11-19T08:49:13;40.63;;;5.45;;
47335;SDS011;33068;51.990;5.926;2023-11-19T08:51:40;41.20;;;5.75;;
47335;SDS011;33068;51.990;5.926;2023-11-19T08:54:08;49.17;;;6.00;;
47335;SDS011;33068;51.990;5.926;2023-11-19T08:56:43;38.78;;;4.03;;
47335;SDS011;33068;51.990;5.926;2023-11-19T08:59:13;39.13;;;5.20;;
47335;SDS011;33068;51.990;5.926;2023-11-19T09:01:45;41.85;;;5.05;;
47335;SDS011;33068;51.990;5.926;2023-11-19T09:04:13;35.63;;;4.95;;
47335;SDS011;33068;51.990;5.926;2023-11-19T09:06:41;48.70;;;5.78;;
47335;SDS011;33068;51.990;5.926;2023-11-19T09:09:09;45.28;;;5.15;;
47335;SDS011;33068;51.990;5.926;2023-11-19T09:11:36;47.30;;;7.20;;
47335;SDS011;33068;51.990;5.926;2023-11-19T09:14:11;55.10;;;6.18;;
47335;SDS011;33068;51.990;5.926;2023-11-19T09:16:38;39.47;;;4.97;;
47335;SDS011;33068;51.990;5.926;2023-11-19T09:19:06;28.65;;;4.40;;
47335;SDS011;33068;51.990;5.926;2023-11-19T09:21:35;47.55;;;7.47;;
47335;SDS011;33068;51.990;5.926;2023-11-19T09:24:04;44.42;;;6.63;;
47335;SDS011;33068;51.990;5.926;2023-11-19T09:26:37;43.53;;;5.43;;
47335;SDS011;33068;51.990;5.926;2023-11-19T09:29:06;35.00;;;4.72;;
47335;SDS011;33068;51.990;5.926;2023-11-19T09:31:38;35.17;;;6.57;;
47335;SDS011;33068;51.990;5.926;2023-11-19T09:34:06;42.55;;;5.60;;
47335;SDS011;33068;51.990;5.926;2023-11-19T09:36:34;34.92;;;5.78;;
47335;SDS011;33068;51.990;5.926;2023-11-19T09:39:04;35.78;;;4.47;;
47335;SDS011;33068;51.990;5.926;2023-11-19T09:41:39;44.65;;;4.75;;
47335;SDS011;33068;51.990;5.926;2023-11-19T09:44:07;35.17;;;6.15;;
47335;SDS011;33068;51.990;5.926;2023-11-19T09:46:35;47.88;;;6.45;;
47335;SDS011;33068;51.990;5.926;2023-11-19T09:49:13;35.65;;;4.22;;
47335;SDS011;33068;51.990;5.926;2023-11-19T09:51:40;44.92;;;4.53;;
47335;SDS011;33068;51.990;5.926;2023-11-19T09:54:09;38.95;;;4.95;;
47335;SDS011;33068;51.990;5.926;2023-11-19T09:56:39;39.80;;;5.25;;
47335;SDS011;33068;51.990;5.926;2023-11-19T09:59:07;44.00;;;5.20;;
47335;SDS011;33068;51.990;5.926;2023-11-19T10:01:35;42.20;;;5.88;;
47335;SDS011;33068;51.990;5.926;2023-11-19T10:04:03;34.97;;;4.68;;
47335;SDS011;33068;51.990;5.926;2023-11-19T10:06:33;39.45;;;5.53;;
47335;SDS011;33068;51.990;5.926;2023-11-19T10:09:03;49.15;;;5.50;;
47335;SDS011;33068;51.990;5.926;2023-11-19T10:11:31;42.70;;;5.00;;
47335;SDS011;33068;51.990;5.926;2023-11-19T10:14:01;37.30;;;4.20;;
47335;SDS011;33068;51.990;5.926;2023-11-19T10:16:37;47.10;;;5.03;;
47335;SDS011;33068;51.990;5.926;2023-11-19T10:19:07;42.33;;;4.30;;
47335;SDS011;33068;51.990;5.926;2023-11-19T10:21:38;39.40;;;5.03;;
47335;SDS011;33068;51.990;5.926;2023-11-19T10:24:09;39.17;;;4.90;;
47335;SDS011;33068;51.990;5.926;2023-11-19T10:26:36;35.97;;;4.22;;
47335;SDS011;33068;51.990;5.926;2023-11-19T10:29:04;37.97;;;4.22;;
47335;SDS011;33068;51.990;5.926;2023-11-19T10:31:36;33.58;;;5.32;;
47335;SDS011;33068;51.990;5.926;2023-11-19T10:34:13;43.78;;;5.20;;
47335;SDS011;33068;51.990;5.926;2023-11-19T10:36:54;43.17;;;5.40;;
47335;SDS011;33068;51.990;5.926;2023-11-19T10:39:22;36.25;;;5.28;;
47335;SDS011;33068;51.990;5.926;2023-11-19T10:41:50;36.85;;;5.40;;
47335;SDS011;33068;51.990;5.926;2023-11-19T10:44:30;47.45;;;7.30;;
47335;SDS011;33068;51.990;5.926;2023-11-19T10:47:05;47.50;;;6.68;;
47335;SDS011;33068;51.990;5.926;2023-11-19T10:52:39;31.42;;;4.03;;
47335;SDS011;33068;51.990;5.926;2023-11-19T10:55:10;34.40;;;5.13;;
47335;SDS011;33068;51.990;5.926;2023-11-19T10:57:56;39.85;;;4.43;;
47335;SDS011;33068;51.990;5.926;2023-11-19T11:00:26;38.28;;;7.32;;
47335;SDS011;33068;51.990;5.926;2023-11-19T11:02:56;34.92;;;6.95;;
47335;SDS011;33068;51.990;5.926;2023-11-19T11:05:27;31.77;;;4.88;;
47335;SDS011;33068;51.990;5.926;2023-11-19T11:08:07;28.48;;;4.03;;
47335;SDS011;33068;51.990;5.926;2023-11-19T11:10:35;37.63;;;5.88;;
47335;SDS011;33068;51.990;5.926;2023-11-19T11:13:06;34.30;;;4.07;;
47335;SDS011;33068;51.990;5.926;2023-11-19T11:15:35;29.15;;;5.28;;
47335;SDS011;33068;51.990;5.926;2023-11-19T11:18:08;33.92;;;4.53;;
47335;SDS011;33068;51.990;5.926;2023-11-19T11:20:35;42.90;;;6.40;;
47335;SDS011;33068;51.990;5.926;2023-11-19T11:25:48;33.60;;;4.95;;
47335;SDS011;33068;51.990;5.926;2023-11-19T11:28:23;39.75;;;6.90;;
47335;SDS011;33068;51.990;5.926;2023-11-19T11:30:59;32.53;;;4.55;;
47335;SDS011;33068;51.990;5.926;2023-11-19T11:33:34;24.48;;;3.33;;
47335;SDS011;33068;51.990;5.926;2023-11-19T11:36:06;36.38;;;4.05;;
47335;SDS011;33068;51.990;5.926;2023-11-19T11:38:37;33.72;;;4.55;;
47335;SDS011;33068;51.990;5.926;2023-11-19T11:41:18;30.73;;;3.42;;
47335;SDS011;33068;51.990;5.926;2023-11-19T11:43:52;33.75;;;4.32;;
47335;SDS011;33068;51.990;5.926;2023-11-19T11:49:06;28.98;;;4.70;;
47335;SDS011;33068;51.990;5.926;2023-11-19T11:54:25;43.83;;;5.05;;
47335;SDS011;33068;51.990;5.926;2023-11-19T11:57:06;32.95;;;4.88;;
47335;SDS011;33068;51.990;5.926;2023-11-19T11:59:42;29.63;;;3.58;;
47335;SDS011;33068;51.990;5.926;2023-11-19T12:02:11;24.67;;;3.33;;
47335;SDS011;33068;51.990;5.926;2023-11-19T12:04:39;25.55;;;3.33;;
47335;SDS011;33068;51.990;5.926;2023-11-19T12:07:11;35.30;;;3.35;;
47335;SDS011;33068;51.990;5.926;2023-11-19T12:09:40;27.40;;;4.28;;
47335;SDS011;33068;51.990;5.926;2023-11-19T12:12:13;33.95;;;4.20;;
47335;SDS011;33068;51.990;5.926;2023-11-19T12:20:19;27.83;;;4.13;;
47335;SDS011;33068;51.990;5.926;2023-11-19T12:22:46;22.60;;;3.15;;
47335;SDS011;33068;51.990;5.926;2023-11-19T12:25:15;21.88;;;2.95;;
47335;SDS011;33068;51.990;5.926;2023-11-19T12:27:45;21.92;;;3.63;;
47335;SDS011;33068;51.990;5.926;2023-11-19T12:30:17;22.73;;;2.22;;
47335;SDS011;33068;51.990;5.926;2023-11-19T12:32:48;28.60;;;2.75;;
47335;SDS011;33068;51.990;5.926;2023-11-19T12:35:16;27.80;;;5.10;;
47335;SDS011;33068;51.990;5.926;2023-11-19T12:37:44;16.98;;;2.22;;
47335;SDS011;33068;51.990;5.926;2023-11-19T12:40:15;17.83;;;2.33;;
47335;SDS011;33068;51.990;5.926;2023-11-19T12:42:43;21.40;;;3.20;;
47335;SDS011;33068;51.990;5.926;2023-11-19T12:45:11;18.73;;;2.33;;
47335;SDS011;33068;51.990;5.926;2023-11-19T12:47:43;20.08;;;2.97;;
47335;SDS011;33068;51.990;5.926;2023-11-19T12:50:12;22.13;;;2.95;;
47335;SDS011;33068;51.990;5.926;2023-11-19T12:52:39;19.20;;;2.70;;
47335;SDS011;33068;51.990;5.926;2023-11-19T12:57:50;25.67;;;3.35;;
47335;SDS011;33068;51.990;5.926;2023-11-19T13:00:23;12.57;;;1.95;;
47335;SDS011;33068;51.990;5.926;2023-11-19T13:02:55;24.45;;;3.40;;
47335;SDS011;33068;51.990;5.926;2023-11-19T13:05:24;24.25;;;3.63;;
47335;SDS011;33068;51.990;5.926;2023-11-19T13:08:02;20.98;;;3.35;;
47335;SDS011;33068;51.990;5.926;2023-11-19T13:10:31;25.90;;;3.97;;
47335;SDS011;33068;51.990;5.926;2023-11-19T13:13:02;28.00;;;4.22;;
47335;SDS011;33068;51.990;5.926;2023-11-19T13:15:31;22.92;;;3.28;;
47335;SDS011;33068;51.990;5.926;2023-11-19T13:18:02;27.63;;;3.30;;
47335;SDS011;33068;51.990;5.926;2023-11-19T13:20:29;28.70;;;4.00;;
47335;SDS011;33068;51.990;5.926;2023-11-19T13:22:58;18.92;;;3.65;;
47335;SDS011;33068;51.990;5.926;2023-11-19T13:25:26;20.48;;;2.75;;
47335;SDS011;33068;51.990;5.926;2023-11-19T13:27:54;29.67;;;3.95;;
47335;SDS011;33068;51.990;5.926;2023-11-19T13:30:25;27.10;;;3.25;;
47335;SDS011;33068;51.990;5.926;2023-11-19T13:32:54;29.73;;;4.55;;
47335;SDS011;33068;51.990;5.926;2023-11-19T13:35:22;33.97;;;6.55;;
47335;SDS011;33068;51.990;5.926;2023-11-19T13:37:50;33.47;;;6.22;;
47335;SDS011;33068;51.990;5.926;2023-11-19T13:40:18;35.13;;;5.32;;
47335;SDS011;33068;51.990;5.926;2023-11-19T13:42:47;34.42;;;4.85;;
47335;SDS011;33068;51.990;5.926;2023-11-19T13:45:20;23.52;;;3.72;;
47335;SDS011;33068;51.990;5.926;2023-11-19T13:47:53;24.27;;;4.78;;
47335;SDS011;33068;51.990;5.926;2023-11-19T13:50:21;26.65;;;4.05;;
47335;SDS011;33068;51.990;5.926;2023-11-19T13:52:51;25.77;;;4.00;;
47335;SDS011;33068;51.990;5.926;2023-11-19T13:55:18;40.20;;;5.82;;
47335;SDS011;33068;51.990;5.926;2023-11-19T13:57:47;31.58;;;5.05;;
47335;SDS011;33068;51.990;5.926;2023-11-19T14:00:15;29.23;;;4.78;;
47335;SDS011;33068;51.990;5.926;2023-11-19T14:02:44;18.77;;;4.93;;
47335;SDS011;33068;51.990;5.926;2023-11-19T14:05:16;20.63;;;4.15;;
47335;SDS011;33068;51.990;5.926;2023-11-19T14:07:43;35.08;;;8.15;;
47335;SDS011;33068;51.990;5.926;2023-11-19T14:10:13;26.85;;;5.65;;
47335;SDS011;33068;51.990;5.926;2023-11-19T14:12:41;34.85;;;9.88;;
47335;SDS011;33068;51.990;5.926;2023-11-19T14:15:09;30.17;;;7.57;;
47335;SDS011;33068;51.990;5.926;2023-11-19T14:17:37;28.95;;;4.50;;
47335;SDS011;33068;51.990;5.926;2023-11-19T14:20:05;27.35;;;4.75;;
47335;SDS011;33068;51.990;5.926;2023-11-19T14:22:39;24.45;;;3.97;;
47335;SDS011;33068;51.990;5.926;2023-11-19T14:25:07;20.67;;;3.55;;
47335;SDS011;33068;51.990;5.926;2023-11-19T14:27:35;34.20;;;4.30;;
47335;SDS011;33068;51.990;5.926;2023-11-19T14:30:04;28.05;;;4.57;;
47335;SDS011;33068;51.990;5.926;2023-11-19T14:32:32;31.63;;;5.28;;
47335;SDS011;33068;51.990;5.926;2023-11-19T14:34:59;28.33;;;4.72;;
47335;SDS011;33068;51.990;5.926;2023-11-19T14:37:27;28.63;;;5.53;;
47335;SDS011;33068;51.990;5.926;2023-11-19T14:39:57;23.05;;;5.15;;
47335;SDS011;33068;51.990;5.926;2023-11-19T14:42:24;26.67;;;4.18;;
47335;SDS011;33068;51.990;5.926;2023-11-19T14:44:52;40.72;;;5.65;;
47335;SDS011;33068;51.990;5.926;2023-11-19T14:47:19;30.00;;;4.70;;
47335;SDS011;33068;51.990;5.926;2023-11-19T14:49:46;22.40;;;3.53;;
47335;SDS011;33068;51.990;5.926;2023-11-19T14:52:14;26.70;;;4.95;;
47335;SDS011;33068;51.990;5.926;2023-11-19T14:54:43;35.67;;;6.07;;
47335;SDS011;33068;51.990;5.926;2023-11-19T14:57:12;25.20;;;4.78;;
47335;SDS011;33068;51.990;5.926;2023-11-19T14:59:40;26.25;;;5.10;;
47335;SDS011;33068;51.990;5.926;2023-11-19T15:02:07;22.27;;;6.30;;
47335;SDS011;33068;51.990;5.926;2023-11-19T15:04:36;29.63;;;4.97;;
47335;SDS011;33068;51.990;5.926;2023-11-19T15:07:03;23.55;;;6.10;;
47335;SDS011;33068;51.990;5.926;2023-11-19T15:09:33;27.35;;;4.82;;
47335;SDS011;33068;51.990;5.926;2023-11-19T15:12:03;31.05;;;6.18;;
47335;SDS011;33068;51.990;5.926;2023-11-19T15:14:33;20.67;;;5.18;;
47335;SDS011;33068;51.990;5.926;2023-11-19T15:17:01;38.03;;;6.18;;
47335;SDS011;33068;51.990;5.926;2023-11-19T15:19:30;29.45;;;6.25;;
47335;SDS011;33068;51.990;5.926;2023-11-19T15:21:58;34.92;;;5.05;;
47335;SDS011;33068;51.990;5.926;2023-11-19T15:24:26;26.42;;;4.97;;
47335;SDS011;33068;51.990;5.926;2023-11-19T15:26:54;27.98;;;4.70;;
47335;SDS011;33068;51.990;5.926;2023-11-19T15:29:22;36.50;;;7.43;;
47335;SDS011;33068;51.990;5.926;2023-11-19T15:31:51;31.35;;;7.13;;
47335;SDS011;33068;51.990;5.926;2023-11-19T15:34:18;26.58;;;5.40;;
47335;SDS011;33068;51.990;5.926;2023-11-19T15:36:49;27.50;;;7.50;;